Terminal Aerodrome Forecast
Issued by NWS

Home | Current Version | Previous Version | Text Only | Print | Product List | Glossary On
Versions: 1 2 3 4 5 6 7 8 9 10 11 12 13 14 15 16 17
000
FTAK31 PAFA 222336
TAFAFA
TAF
PAFA 222336Z 2300/2406 VRB04KT 2SM -SN BR SCT015 BKN025 OVC035
     FM230600 VRB04KT 6SM -SN BR BKN025 BKN035 OVC050
     FM230900 VRB04KT P6SM SCT035 BKN050 OVC100=

USA.gov is the U.S. government's official web portal to all federal, state and local government web resources and services.